Aviation Digital Data Service (ADDS)

Output produced by METARs form (2018 UTC 20 August 2019)
found at http://www.aviationweather.gov/metar/data/
 
Forecast for: TAPA (COOLIDGE/ANTIGUA, AG)
Text: TAF TAPA 201700Z 2018/2118 07008KT 9999 SCT021
Forecast period: 1800 UTC 20 August 2019 to 1800 UTC 21 August 2019
Forecast type: FROM: standard forecast or significant change
Winds: from the ENE (70 degrees) at 9 MPH (8 knots; 4.1 m/s)
Visibility: 6 or more miles 10+ km)
Ceiling: at least 12,000 feet AGL
Clouds: scattered clouds at 2100 feet AGL
Weather: no significant weather forecast for this period
Text: PROB30
Forecast period: 0000 to 1200 UTC 21 August 2019
Forecast type: TEMPORARY: The following changes expected for less than half the time period
Visibility: missing
Ceiling: unknown
Clouds: missing
Weather: SHRA  (rain showers)